Time;durP1;ratioP1;P1;durP2;ratioP2;P2;SDS_P1;SDS_P2;PMS_P1;PMS_P2;Temp;Humidity;BMP_temperature;BMP_pressure;BME280_temperature;BME280_humidity;BME280_pressure;Samples;Min_cycle;Max_cycle;Signal;HPM_P1;HPM_P2
2023/03/29 00:00:40;;;;;;;2.10;1.40;;;6.90;99.90;;;;;;5056060;28;20414;-72
2023/03/29 00:03:07;;;;;;;1.70;1.40;;;6.90;99.90;;;;;;5050444;28;20911;-72
2023/03/29 00:05:38;;;;;;;3.00;2.13;;;6.90;99.90;;;;;;5055275;28;20422;-73
2023/03/29 00:08:13;;;;;;;5.20;2.43;;;6.90;99.90;;;;;;5050569;28;20563;-72
2023/03/29 00:10:40;;;;;;;2.10;1.90;;;6.90;99.90;;;;;;5050376;28;20427;-72
2023/03/29 00:13:10;;;;;;;1.90;1.60;;;6.80;99.90;;;;;;5050639;28;20537;-72
2023/03/29 00:15:37;;;;;;;1.50;1.30;;;6.80;99.90;;;;;;5060567;28;20398;-73
2023/03/29 00:18:04;;;;;;;3.17;2.07;;;6.80;99.90;;;;;;5058161;28;20542;-72
2023/03/29 00:20:31;;;;;;;6.20;1.77;;;6.80;99.90;;;;;;5053602;28;20447;-72
2023/03/29 00:22:58;;;;;;;2.33;2.13;;;6.90;99.90;;;;;;5062187;28;20856;-72
2023/03/29 00:25:27;;;;;;;3.43;1.90;;;6.80;99.90;;;;;;5050506;28;20505;-72
2023/03/29 00:27:54;;;;;;;3.47;1.90;;;6.80;99.90;;;;;;5050268;28;20528;-72
2023/03/29 00:30:21;;;;;;;3.10;1.50;;;6.70;99.90;;;;;;5050359;28;20457;-72
2023/03/29 00:32:48;;;;;;;3.33;2.00;;;6.70;99.90;;;;;;5049964;28;20545;-72
2023/03/29 00:35:17;;;;;;;3.03;2.03;;;6.90;99.90;;;;;;5050130;28;20535;-72
2023/03/29 00:37:45;;;;;;;2.93;1.87;;;6.80;99.90;;;;;;5051173;28;20917;-72
2023/03/29 00:40:14;;;;;;;2.67;2.13;;;6.70;99.90;;;;;;5053981;28;20459;-72
2023/03/29 00:42:44;;;;;;;3.67;1.90;;;6.70;99.90;;;;;;5054321;28;20425;-72
2023/03/29 00:45:20;;;;;;;1.80;1.53;;;6.70;99.90;;;;;;5054546;28;20406;-71
2023/03/29 00:47:50;;;;;;;3.87;1.80;;;6.70;99.90;;;;;;5054105;28;20806;-72
2023/03/29 00:50:24;;;;;;;1.90;1.40;;;6.70;99.90;;;;;;5054087;28;20788;-71
2023/03/29 00:52:55;;;;;;;2.07;1.90;;;6.70;99.90;;;;;;5053982;28;20438;-72
2023/03/29 00:55:24;;;;;;;2.93;1.80;;;6.70;99.90;;;;;;5053782;28;20546;-72
2023/03/29 00:57:55;;;;;;;2.63;2.43;;;6.70;99.90;;;;;;5053674;28;20467;-72
2023/03/29 01:00:30;;;;;;;8.93;1.83;;;6.80;99.90;;;;;;5053627;28;20459;-72
2023/03/29 01:02:59;;;;;;;4.30;1.90;;;6.80;99.90;;;;;;5057540;28;20398;-72
2023/03/29 01:05:30;;;;;;;3.13;2.03;;;6.90;99.90;;;;;;5062490;28;20822;-72
2023/03/29 01:08:00;;;;;;;3.67;2.30;;;6.90;99.90;;;;;;5054564;28;20467;-71
2023/03/29 01:10:34;;;;;;;2.70;1.93;;;6.80;99.90;;;;;;5063208;28;20442;-71
2023/03/29 01:13:08;;;;;;;2.10;1.43;;;6.80;99.90;;;;;;5063225;28;20502;-71
2023/03/29 01:15:36;;;;;;;3.43;1.73;;;6.80;99.90;;;;;;5054521;28;20762;-72
2023/03/29 01:18:05;;;;;;;1.83;1.73;;;6.70;99.90;;;;;;5057482;28;20479;-71
2023/03/29 01:20:47;;;;;;;1.70;1.60;;;6.80;99.90;;;;;;5054603;28;20474;-71
2023/03/29 01:23:32;;;;;;;1.37;1.17;;;6.60;99.90;;;;;;5052028;28;20410;-72
2023/03/29 01:26:11;;;;;;;2.70;1.53;;;6.70;99.90;;;;;;5053678;28;20506;-71
2023/03/29 01:28:45;;;;;;;1.90;1.40;;;6.80;99.90;;;;;;5053962;28;20430;-71
2023/03/29 01:31:16;;;;;;;2.57;1.87;;;6.90;99.90;;;;;;5053346;28;20457;-71
2023/03/29 01:33:49;;;;;;;3.00;2.43;;;6.90;99.90;;;;;;5052986;28;20454;-71
2023/03/29 01:36:23;;;;;;;3.97;1.57;;;7.00;99.90;;;;;;5053766;28;20463;-71
2023/03/29 01:38:57;;;;;;;2.10;1.70;;;6.80;99.90;;;;;;5055119;28;20505;-71
2023/03/29 01:41:35;;;;;;;1.53;1.40;;;6.90;99.90;;;;;;5053174;28;20580;-71
2023/03/29 01:44:06;;;;;;;4.90;2.33;;;6.90;99.90;;;;;;5053185;28;20501;-71
2023/03/29 01:46:39;;;;;;;2.10;1.50;;;6.90;99.90;;;;;;5052934;28;20988;-71
2023/03/29 01:49:12;;;;;;;1.40;1.20;;;6.90;99.90;;;;;;5052585;28;20914;-72
2023/03/29 01:51:44;;;;;;;3.77;1.50;;;7.00;99.90;;;;;;5052726;28;20468;-72
2023/03/29 01:54:16;;;;;;;2.77;1.43;;;7.00;99.90;;;;;;5052996;28;20921;-72
2023/03/29 01:56:47;;;;;;;3.00;1.30;;;7.00;99.90;;;;;;5066305;28;20484;-72
2023/03/29 01:59:20;;;;;;;2.10;1.83;;;7.00;99.90;;;;;;5053571;28;20790;-72
2023/03/29 02:01:51;;;;;;;5.03;1.40;;;7.00;99.90;;;;;;5053533;28;20464;-72
2023/03/29 02:04:23;;;;;;;6.30;1.93;;;7.00;99.90;;;;;;5055853;28;20395;-72
2023/03/29 02:06:54;;;;;;;1.93;1.57;;;7.00;99.90;;;;;;5067625;28;20467;-72
2023/03/29 02:09:22;;;;;;;3.60;2.13;;;7.00;99.90;;;;;;5053452;28;20427;-72
2023/03/29 02:11:51;;;;;;;1.57;1.30;;;6.90;99.90;;;;;;5052379;28;20489;-72
2023/03/29 02:14:20;;;;;;;1.40;1.10;;;7.00;99.90;;;;;;5052426;28;20967;-72
2023/03/29 02:16:48;;;;;;;1.77;1.60;;;7.00;99.90;;;;;;5052089;28;20987;-72
2023/03/29 02:19:20;;;;;;;4.00;1.73;;;7.00;99.90;;;;;;5052593;28;20454;-72
2023/03/29 02:21:53;;;;;;;3.10;1.40;;;7.10;99.90;;;;;;5052496;28;20818;-72
2023/03/29 02:24:23;;;;;;;1.77;1.53;;;7.20;99.90;;;;;;5052487;28;20463;-72
2023/03/29 02:26:50;;;;;;;1.70;1.60;;;7.20;99.90;;;;;;5052478;28;20467;-72
2023/03/29 02:29:19;;;;;;;2.50;1.70;;;7.20;99.90;;;;;;5052446;28;20439;-72
2023/03/29 02:31:51;;;;;;;1.57;1.27;;;7.30;99.90;;;;;;5053865;28;21006;-73
2023/03/29 02:34:25;;;;;;;1.93;1.47;;;7.20;99.90;;;;;;5054370;28;20407;-72
2023/03/29 02:36:55;;;;;;;2.23;1.40;;;7.20;99.90;;;;;;5056566;28;20467;-72
2023/03/29 02:39:24;;;;;;;2.27;2.00;;;7.20;99.90;;;;;;5052336;28;20906;-72
2023/03/29 02:41:53;;;;;;;2.00;1.67;;;7.30;99.90;;;;;;5051741;28;20509;-72
2023/03/29 02:44:25;;;;;;;5.03;1.80;;;7.30;99.90;;;;;;5051875;28;20446;-72
2023/03/29 02:46:58;;;;;;;3.50;1.70;;;7.40;99.90;;;;;;5051824;28;20467;-72
2023/03/29 02:49:26;;;;;;;1.27;1.17;;;7.40;99.90;;;;;;5051839;28;20448;-73
2023/03/29 02:51:58;;;;;;;2.73;2.53;;;7.30;99.90;;;;;;5051938;28;20451;-72
2023/03/29 02:54:28;;;;;;;5.33;1.80;;;7.40;99.90;;;;;;5051992;28;20507;-72
2023/03/29 02:56:57;;;;;;;1.80;1.30;;;7.40;99.90;;;;;;5052446;28;20499;-72
2023/03/29 02:59:28;;;;;;;6.33;1.63;;;7.50;99.90;;;;;;5065909;28;20536;-72
2023/03/29 03:01:55;;;;;;;1.50;1.20;;;7.60;99.90;;;;;;5062966;28;20431;-73
2023/03/29 03:04:22;;;;;;;1.70;1.30;;;7.50;99.90;;;;;;5052655;28;20440;-73
2023/03/29 03:06:49;;;;;;;2.47;2.00;;;7.50;99.90;;;;;;5051537;28;20578;-71
2023/03/29 03:09:19;;;;;;;1.27;0.90;;;7.50;99.90;;;;;;5051228;28;20840;-71
2023/03/29 03:11:46;;;;;;;1.30;1.20;;;7.60;99.90;;;;;;5051587;28;20586;-71
2023/03/29 03:14:13;;;;;;;2.33;1.57;;;7.60;99.90;;;;;;5051892;28;20538;-71
2023/03/29 03:16:41;;;;;;;2.80;1.40;;;7.60;99.90;;;;;;5053692;28;20499;-72
2023/03/29 03:19:09;;;;;;;2.30;1.40;;;7.70;99.90;;;;;;5051697;28;20471;-72
2023/03/29 03:21:36;;;;;;;2.27;1.70;;;7.70;99.90;;;;;;5051021;28;20462;-72
2023/03/29 03:24:04;;;;;;;3.30;1.43;;;7.60;99.90;;;;;;5051739;28;20414;-71
2023/03/29 03:26:31;;;;;;;2.60;1.50;;;7.60;99.90;;;;;;5050946;28;20916;-71
2023/03/29 03:29:00;;;;;;;3.27;2.50;;;7.70;99.90;;;;;;5051353;28;20494;-71
2023/03/29 03:31:27;;;;;;;2.67;1.60;;;7.80;99.90;;;;;;5051007;28;20543;-72
2023/03/29 03:33:55;;;;;;;8.93;2.00;;;7.80;99.90;;;;;;5050659;28;20454;-71
2023/03/29 03:36:24;;;;;;;2.30;2.10;;;7.80;99.90;;;;;;5050762;28;20532;-71
2023/03/29 03:38:51;;;;;;;2.60;1.97;;;7.80;99.90;;;;;;5051334;28;20893;-72
2023/03/29 03:41:19;;;;;;;4.63;1.70;;;7.90;99.90;;;;;;5050976;28;20517;-71
2023/03/29 03:43:47;;;;;;;2.60;2.10;;;7.80;99.90;;;;;;5054882;28;20417;-71
2023/03/29 03:46:15;;;;;;;1.60;1.50;;;7.70;99.90;;;;;;5051566;28;20438;-71
2023/03/29 03:48:42;;;;;;;3.17;2.00;;;7.70;99.90;;;;;;5050706;28;20454;-71
2023/03/29 03:51:10;;;;;;;2.20;1.63;;;7.70;99.90;;;;;;5051413;28;20554;-72
2023/03/29 03:53:37;;;;;;;7.97;1.70;;;7.70;99.90;;;;;;5055086;28;20458;-73
2023/03/29 03:56:07;;;;;;;2.70;1.90;;;7.90;99.90;;;;;;5060466;28;20426;-70
2023/03/29 03:58:35;;;;;;;2.07;1.77;;;8.00;99.90;;;;;;5050968;28;20444;-70
2023/03/29 04:01:02;;;;;;;5.73;2.37;;;7.90;99.90;;;;;;5054479;28;20440;-71
2023/03/29 04:03:30;;;;;;;1.60;1.20;;;8.10;99.90;;;;;;5050736;28;20509;-71
2023/03/29 04:06:00;;;;;;;3.10;1.47;;;8.10;99.90;;;;;;5050560;28;20453;-71
2023/03/29 04:08:29;;;;;;;2.40;1.50;;;8.20;99.90;;;;;;5050785;28;20479;-71
2023/03/29 04:10:57;;;;;;;2.40;1.63;;;8.20;99.90;;;;;;5050070;28;20502;-71
2023/03/29 04:13:25;;;;;;;2.40;1.93;;;8.10;99.90;;;;;;5050071;28;21031;-71
2023/03/29 04:15:53;;;;;;;1.53;1.30;;;8.10;99.90;;;;;;5050509;28;20448;-71
2023/03/29 04:18:20;;;;;;;2.57;1.80;;;8.00;99.90;;;;;;5050409;28;20447;-71
2023/03/29 04:20:48;;;;;;;1.43;1.20;;;7.70;99.90;;;;;;5050461;28;20451;-71
2023/03/29 04:23:15;;;;;;;8.03;2.17;;;7.60;99.90;;;;;;5050417;28;20501;-71
2023/03/29 04:25:47;;;;;;;2.93;2.43;;;7.60;99.90;;;;;;5050372;28;20906;-71
2023/03/29 04:28:15;;;;;;;1.73;1.60;;;7.60;99.90;;;;;;5049868;28;20988;-71
2023/03/29 04:30:41;;;;;;;2.50;1.70;;;7.60;99.90;;;;;;5030997;28;20432;-71
2023/03/29 04:33:09;;;;;;;8.80;1.90;;;7.60;99.90;;;;;;5050330;28;20478;-70
2023/03/29 04:35:36;;;;;;;3.10;2.83;;;7.50;99.90;;;;;;5051064;28;20864;-71
2023/03/29 04:38:04;;;;;;;3.43;1.97;;;7.60;99.90;;;;;;5050260;28;20479;-71
2023/03/29 04:40:32;;;;;;;3.07;2.73;;;7.60;99.90;;;;;;5050037;28;20459;-71
2023/03/29 04:43:02;;;;;;;3.90;1.80;;;7.60;99.90;;;;;;5050485;28;20439;-71
2023/03/29 04:45:30;;;;;;;3.10;1.50;;;7.70;99.90;;;;;;5050444;28;20471;-71
2023/03/29 04:47:58;;;;;;;1.80;1.40;;;7.70;99.90;;;;;;5051204;28;20983;-71
2023/03/29 04:50:25;;;;;;;2.43;2.23;;;7.70;99.90;;;;;;5066277;28;20429;-71
2023/03/29 04:52:52;;;;;;;3.20;1.50;;;7.80;99.90;;;;;;5050711;28;20541;-72
2023/03/29 04:55:22;;;;;;;3.50;2.10;;;7.70;99.90;;;;;;5052601;28;20486;-71
2023/03/29 04:57:50;;;;;;;1.67;1.57;;;7.70;99.90;;;;;;5054020;28;20841;-72
2023/03/29 05:00:25;;;;;;;2.47;1.60;;;7.70;99.90;;;;;;5052854;28;20793;-71
2023/03/29 05:02:53;;;;;;;2.90;2.40;;;7.80;99.90;;;;;;5049619;28;20408;-72
2023/03/29 05:05:20;;;;;;;3.57;2.30;;;7.80;99.90;;;;;;5049618;28;21039;-71
2023/03/29 05:07:47;;;;;;;2.43;2.13;;;7.80;99.90;;;;;;5049705;28;20531;-71
2023/03/29 05:10:14;;;;;;;5.60;2.10;;;7.80;99.90;;;;;;5049873;28;20422;-71
2023/03/29 05:12:43;;;;;;;3.17;2.53;;;7.90;99.90;;;;;;5049713;28;20464;-71
2023/03/29 05:15:11;;;;;;;5.37;2.20;;;7.90;99.90;;;;;;5049406;28;20466;-71
2023/03/29 05:17:39;;;;;;;6.70;3.07;;;8.00;99.90;;;;;;5049608;28;20474;-71
2023/03/29 05:20:11;;;;;;;2.67;1.73;;;8.00;99.90;;;;;;5049835;28;20451;-71
2023/03/29 05:22:39;;;;;;;3.40;2.50;;;8.10;99.90;;;;;;5053059;28;20416;-69
2023/03/29 05:25:07;;;;;;;6.87;2.10;;;8.20;99.90;;;;;;5057595;28;20440;-70
2023/03/29 05:27:35;;;;;;;2.53;1.50;;;8.30;99.90;;;;;;5053298;28;20495;-71
2023/03/29 05:30:02;;;;;;;4.33;2.27;;;8.20;99.90;;;;;;5053339;28;20458;-71
2023/03/29 05:32:29;;;;;;;10.90;2.83;;;8.10;99.90;;;;;;5053024;28;20943;-70
2023/03/29 05:34:58;;;;;;;2.80;2.20;;;8.10;99.90;;;;;;5053158;28;20451;-71
2023/03/29 05:37:25;;;;;;;4.23;2.67;;;8.10;99.90;;;;;;5053732;28;20471;-71
2023/03/29 05:39:52;;;;;;;1.77;1.23;;;8.00;99.90;;;;;;5053341;28;20844;-71
2023/03/29 05:42:21;;;;;;;1.57;1.30;;;7.90;99.90;;;;;;5055776;28;20416;-71
2023/03/29 05:44:49;;;;;;;4.80;2.50;;;7.90;99.90;;;;;;5068746;28;20420;-71
2023/03/29 05:47:16;;;;;;;3.83;2.50;;;7.90;99.90;;;;;;5053306;28;20462;-71
2023/03/29 05:49:43;;;;;;;2.97;1.83;;;8.00;99.90;;;;;;5053309;28;20419;-71
2023/03/29 05:52:11;;;;;;;4.67;1.80;;;7.90;99.90;;;;;;5053126;28;20530;-71
2023/03/29 05:54:38;;;;;;;2.70;1.90;;;8.00;99.90;;;;;;5053027;28;20475;-71
2023/03/29 05:57:05;;;;;;;2.67;2.17;;;7.90;99.90;;;;;;5053095;28;20467;-73
2023/03/29 05:59:38;;;;;;;2.03;1.67;;;7.90;99.90;;;;;;5058594;28;20447;-71
2023/03/29 06:02:05;;;;;;;3.73;2.40;;;7.90;99.90;;;;;;5053106;28;20420;-70
2023/03/29 06:04:32;;;;;;;2.90;2.60;;;7.80;99.90;;;;;;5052821;28;20444;-72
2023/03/29 06:07:00;;;;;;;9.03;2.63;;;7.90;99.90;;;;;;5053391;28;20503;-71
2023/03/29 06:09:29;;;;;;;7.30;2.40;;;8.00;99.90;;;;;;5058912;28;20458;-71
2023/03/29 06:11:56;;;;;;;7.07;2.27;;;7.90;99.90;;;;;;5052777;28;20974;-70
2023/03/29 06:14:23;;;;;;;5.90;2.40;;;7.80;99.90;;;;;;5052112;28;21072;-71
2023/03/29 06:16:50;;;;;;;2.37;1.80;;;7.90;99.90;;;;;;5052145;28;20438;-71
2023/03/29 06:19:18;;;;;;;5.23;2.60;;;8.10;99.90;;;;;;5052368;28;20492;-71
2023/03/29 06:21:45;;;;;;;4.73;2.60;;;8.20;99.90;;;;;;5052412;28;20444;-71
2023/03/29 06:24:12;;;;;;;3.00;2.57;;;8.30;99.90;;;;;;5052872;28;20443;-71
2023/03/29 06:26:40;;;;;;;10.70;2.87;;;8.20;99.90;;;;;;5053035;28;20442;-71
2023/03/29 06:29:09;;;;;;;3.30;1.90;;;8.20;99.90;;;;;;5053032;28;20426;-71
2023/03/29 06:31:36;;;;;;;6.70;2.30;;;8.40;99.90;;;;;;5053604;28;20456;-71
2023/03/29 06:34:03;;;;;;;4.03;2.63;;;8.40;99.90;;;;;;5054002;28;20472;-71
2023/03/29 06:36:31;;;;;;;2.27;1.50;;;8.40;99.90;;;;;;5051541;28;20478;-71
2023/03/29 06:38:58;;;;;;;4.73;3.00;;;8.40;99.90;;;;;;5066800;28;20491;-71
2023/03/29 06:41:25;;;;;;;3.00;1.60;;;8.50;99.90;;;;;;5052780;28;20459;-71
2023/03/29 06:43:54;;;;;;;3.80;2.50;;;8.60;99.90;;;;;;5051935;28;20534;-72
2023/03/29 06:46:21;;;;;;;3.50;2.40;;;8.60;99.90;;;;;;5055531;28;20463;-71
2023/03/29 06:48:49;;;;;;;10.30;3.37;;;8.50;99.90;;;;;;5052909;28;20815;-72
2023/03/29 06:51:15;;;;;;;3.93;2.63;;;8.60;99.90;;;;;;5051892;28;20448;-71
2023/03/29 06:53:42;;;;;;;3.23;2.30;;;8.60;99.90;;;;;;5051396;28;20480;-71
2023/03/29 06:56:10;;;;;;;3.40;2.13;;;8.70;99.90;;;;;;5051628;28;20530;-71
2023/03/29 06:58:36;;;;;;;3.47;2.47;;;8.70;99.90;;;;;;5051709;28;20462;-72
2023/03/29 07:01:06;;;;;;;9.20;2.47;;;8.80;99.90;;;;;;5051421;28;20448;-71
2023/03/29 07:03:34;;;;;;;2.73;2.17;;;8.80;99.90;;;;;;5051856;28;20436;-72
2023/03/29 07:06:03;;;;;;;2.20;2.00;;;8.90;99.90;;;;;;5051380;28;20509;-71
2023/03/29 07:08:30;;;;;;;4.87;2.23;;;9.00;99.90;;;;;;5051568;28;20479;-71
2023/03/29 07:10:58;;;;;;;7.50;2.80;;;9.10;99.90;;;;;;5051564;28;20458;-72
2023/03/29 07:13:26;;;;;;;5.20;3.07;;;9.00;99.90;;;;;;5051354;28;20537;-72
2023/03/29 07:15:53;;;;;;;3.77;2.57;;;9.10;99.90;;;;;;5051205;28;20447;-72
2023/03/29 07:18:24;;;;;;;5.00;2.97;;;9.20;99.90;;;;;;5051030;28;20542;-71
2023/03/29 07:20:51;;;;;;;4.37;2.87;;;9.20;99.90;;;;;;5054558;28;20496;-71
2023/03/29 07:23:18;;;;;;;1.57;1.23;;;9.30;99.90;;;;;;5058005;28;20873;-72
2023/03/29 07:25:45;;;;;;;5.57;3.40;;;9.40;99.90;;;;;;5051415;28;20494;-72
2023/03/29 07:28:12;;;;;;;3.77;2.67;;;9.30;99.90;;;;;;5015404;28;20440;-71
2023/03/29 07:30:39;;;;;;;3.30;2.80;;;9.40;99.90;;;;;;5051851;28;20463;-71
2023/03/29 07:33:08;;;;;;;5.57;2.43;;;9.40;99.90;;;;;;5061793;28;20432;-71
2023/03/29 07:35:37;;;;;;;4.40;2.60;;;9.50;99.90;;;;;;5055018;28;20462;-72
2023/03/29 07:38:04;;;;;;;4.07;2.27;;;9.40;99.90;;;;;;5051068;28;20467;-71
2023/03/29 07:40:32;;;;;;;3.57;3.27;;;9.40;99.90;;;;;;5052528;28;20543;-71
2023/03/29 07:42:59;;;;;;;5.20;2.77;;;9.30;99.90;;;;;;5051463;28;20551;-71
2023/03/29 07:45:28;;;;;;;11.03;3.10;;;9.30;99.90;;;;;;5051490;28;20446;-71
2023/03/29 07:47:56;;;;;;;8.63;4.47;;;9.40;99.90;;;;;;5050829;28;20463;-71
2023/03/29 07:50:23;;;;;;;5.43;2.97;;;9.40;99.90;;;;;;5050656;28;20443;-71
2023/03/29 07:52:52;;;;;;;1.77;1.67;;;9.60;99.90;;;;;;5050394;28;20426;-70
2023/03/29 07:55:19;;;;;;;5.60;2.40;;;9.70;99.90;;;;;;5053326;28;20539;-71
2023/03/29 07:57:46;;;;;;;4.90;1.67;;;9.70;99.90;;;;;;5056550;28;20563;-71
2023/03/29 08:00:14;;;;;;;3.83;2.17;;;9.80;99.90;;;;;;5050744;28;20468;-72
2023/03/29 08:02:46;;;;;;;3.17;2.50;;;9.90;99.90;;;;;;5050469;28;20471;-71
2023/03/29 08:05:14;;;;;;;2.70;2.10;;;10.00;99.90;;;;;;5050350;28;20478;-71
2023/03/29 08:07:43;;;;;;;3.20;2.43;;;10.00;99.90;;;;;;5050531;28;20498;-71
2023/03/29 08:10:15;;;;;;;6.90;2.20;;;10.10;99.90;;;;;;5052790;28;20498;-71
2023/03/29 08:12:43;;;;;;;3.33;2.20;;;10.40;99.90;;;;;;5050379;28;20599;-71
2023/03/29 08:15:12;;;;;;;3.73;3.00;;;10.40;99.90;;;;;;5050030;28;20574;-70
2023/03/29 08:17:41;;;;;;;4.43;2.50;;;10.50;99.90;;;;;;5050203;28;20486;-71
2023/03/29 08:20:10;;;;;;;3.50;2.50;;;10.50;99.90;;;;;;5050350;28;20520;-71
2023/03/29 08:22:38;;;;;;;4.40;2.10;;;10.60;99.90;;;;;;5050055;28;20451;-72
2023/03/29 08:25:06;;;;;;;4.60;1.93;;;10.80;99.90;;;;;;5050705;28;20764;-71
2023/03/29 08:27:36;;;;;;;3.00;2.30;;;10.90;99.90;;;;;;5059770;28;20470;-71
2023/03/29 08:30:04;;;;;;;2.70;2.33;;;11.00;99.90;;;;;;5055012;28;20493;-71
2023/03/29 08:32:31;;;;;;;2.90;2.47;;;10.80;99.90;;;;;;5050892;28;20813;-71
2023/03/29 08:35:00;;;;;;;2.87;2.40;;;10.90;99.90;;;;;;5056898;28;20471;-71
2023/03/29 08:37:26;;;;;;;2.27;2.07;;;11.00;99.90;;;;;;5050581;28;20455;-71
2023/03/29 08:39:53;;;;;;;3.27;2.07;;;11.10;99.90;;;;;;5049952;28;20436;-71
2023/03/29 08:42:57;;;;;;;3.20;2.03;;;11.10;99.90;;;;;;5050184;28;20493;-71
2023/03/29 08:45:34;;;;;;;4.43;2.40;;;11.10;99.90;;;;;;5038951;28;20459;-71
2023/03/29 08:48:09;;;;;;;4.67;2.37;;;10.80;99.90;;;;;;5048852;28;20859;-71
2023/03/29 08:50:40;;;;;;;4.03;2.80;;;10.90;99.90;;;;;;5050148;28;20863;-71
2023/03/29 08:53:12;;;;;;;2.73;2.23;;;11.10;99.90;;;;;;5049880;28;20534;-71
2023/03/29 08:55:42;;;;;;;4.10;2.50;;;11.20;99.90;;;;;;5062248;28;20464;-71
2023/03/29 08:58:15;;;;;;;4.30;2.30;;;11.30;99.90;;;;;;5051335;28;20464;-71
2023/03/29 09:00:50;;;;;;;2.20;1.73;;;11.40;99.90;;;;;;5053857;28;20829;-71
2023/03/29 09:03:22;;;;;;;2.43;1.73;;;11.40;99.90;;;;;;5054272;28;20431;-71
2023/03/29 09:05:53;;;;;;;4.40;2.87;;;11.40;99.90;;;;;;5054270;28;20493;-71
2023/03/29 09:08:22;;;;;;;8.10;2.20;;;11.30;99.90;;;;;;5017827;28;20892;-72
2023/03/29 09:11:05;;;;;;;4.60;1.83;;;11.40;99.90;;;;;;5053606;28;20447;-71
2023/03/29 09:13:40;;;;;;;2.83;2.27;;;11.40;99.90;;;;;;5053962;28;20518;-71
2023/03/29 09:16:16;;;;;;;2.40;1.73;;;11.30;99.90;;;;;;5053526;28;20934;-71
2023/03/29 09:18:54;;;;;;;2.00;1.40;;;11.10;99.90;;;;;;5054129;28;20438;-71
2023/03/29 09:21:28;;;;;;;3.30;1.53;;;11.10;99.90;;;;;;5060725;28;20394;-72
2023/03/29 09:24:10;;;;;;;4.00;2.27;;;10.90;99.90;;;;;;5061394;28;20849;-72
2023/03/29 09:26:41;;;;;;;3.00;1.93;;;10.50;99.90;;;;;;5053539;28;20503;-72
2023/03/29 09:29:25;;;;;;;3.10;2.77;;;10.30;99.90;;;;;;5051652;28;20448;-72
2023/03/29 09:31:55;;;;;;;2.70;2.50;;;10.40;99.90;;;;;;5053116;28;20469;-71
2023/03/29 09:34:27;;;;;;;4.03;2.50;;;10.40;99.90;;;;;;5055195;28;20566;-71
2023/03/29 09:36:56;;;;;;;4.03;2.50;;;10.50;99.90;;;;;;5053742;28;20525;-71
2023/03/29 09:39:27;;;;;;;2.70;1.93;;;10.50;99.90;;;;;;5052883;28;21027;-71
2023/03/29 09:41:58;;;;;;;3.00;2.43;;;10.70;99.90;;;;;;5052733;28;20856;-72
2023/03/29 09:44:30;;;;;;;6.70;2.47;;;10.80;99.90;;;;;;5053037;28;20438;-72
2023/03/29 09:47:02;;;;;;;4.37;2.67;;;10.90;99.90;;;;;;5054655;28;20434;-72
2023/03/29 09:49:34;;;;;;;6.57;3.57;;;11.10;99.90;;;;;;5056124;28;20436;-71
2023/03/29 09:52:04;;;;;;;5.60;3.43;;;11.00;99.90;;;;;;5053188;28;20901;-72
2023/03/29 09:54:35;;;;;;;10.57;4.77;;;11.00;99.90;;;;;;5052717;28;20471;-72
2023/03/29 09:57:02;;;;;;;5.23;3.20;;;11.10;99.90;;;;;;5052642;28;20547;-72
2023/03/29 09:59:29;;;;;;;6.17;3.53;;;11.20;99.90;;;;;;5052605;28;20483;-72
2023/03/29 10:02:10;;;;;;;4.40;2.30;;;11.50;99.90;;;;;;5052491;28;20444;-72
2023/03/29 10:04:41;;;;;;;2.67;1.97;;;11.80;99.90;;;;;;5053468;28;20804;-72
2023/03/29 10:07:17;;;;;;;2.40;1.93;;;12.40;99.90;;;;;;5053127;28;20562;-72
2023/03/29 10:09:51;;;;;;;3.00;2.70;;;12.80;99.90;;;;;;5052565;28;20829;-71
2023/03/29 10:12:19;;;;;;;3.20;2.90;;;12.90;99.90;;;;;;5052485;28;20473;-72
2023/03/29 10:14:50;;;;;;;2.40;2.00;;;12.70;99.90;;;;;;5051676;28;20633;-72
2023/03/29 10:17:21;;;;;;;3.23;2.33;;;12.70;99.90;;;;;;5063462;28;20513;-72
2023/03/29 10:19:50;;;;;;;7.10;2.63;;;12.50;99.90;;;;;;5053325;28;20441;-73
2023/03/29 10:22:19;;;;;;;3.00;2.23;;;12.20;99.90;;;;;;5054291;28;20486;-72
2023/03/29 10:24:50;;;;;;;4.53;2.77;;;12.10;99.90;;;;;;5052646;28;20567;-71
2023/03/29 10:27:22;;;;;;;8.30;2.03;;;12.10;99.90;;;;;;5052372;28;20459;-71
2023/03/29 10:29:49;;;;;;;3.17;2.53;;;12.20;99.90;;;;;;5052031;28;20493;-72
2023/03/29 10:32:28;;;;;;;6.80;4.90;;;12.30;99.90;;;;;;5052197;28;20482;-72
2023/03/29 10:34:59;;;;;;;2.50;2.30;;;12.50;99.90;;;;;;5052428;28;20467;-72
2023/03/29 10:37:28;;;;;;;3.60;2.50;;;12.60;99.90;;;;;;5052126;28;20514;-72
2023/03/29 10:39:55;;;;;;;5.70;2.43;;;12.50;99.90;;;;;;5052216;28;20447;-72
2023/03/29 10:42:25;;;;;;;2.73;2.53;;;12.40;99.90;;;;;;5052108;28;20519;-72
2023/03/29 10:44:54;;;;;;;2.80;2.47;;;12.50;99.90;;;;;;5052302;28;20448;-71
2023/03/29 10:47:23;;;;;;;3.60;2.67;;;12.40;99.90;;;;;;5051956;28;20543;-72
2023/03/29 10:49:53;;;;;;;6.13;3.70;;;12.30;99.90;;;;;;5051439;28;20479;-72
2023/03/29 10:52:20;;;;;;;2.47;1.80;;;12.30;99.90;;;;;;5052141;28;20678;-72
2023/03/29 10:54:49;;;;;;;3.40;2.50;;;12.50;99.90;;;;;;5054854;28;21049;-72
2023/03/29 10:57:27;;;;;;;4.37;2.53;;;12.60;99.90;;;;;;5057068;28;20918;-72
2023/03/29 11:00:01;;;;;;;3.03;2.37;;;12.50;99.90;;;;;;5053845;28;20610;-72
2023/03/29 11:03:04;;;;;;;4.40;1.93;;;12.50;99.90;;;;;;5052161;28;20529;-73
2023/03/29 11:05:39;;;;;;;3.90;2.57;;;12.30;99.90;;;;;;5051751;28;20430;-72
2023/03/29 11:08:23;;;;;;;4.00;1.70;;;12.40;99.90;;;;;;5051534;28;21022;-72
2023/03/29 11:10:59;;;;;;;12.67;2.67;;;12.60;99.90;;;;;;5061719;28;20431;-71
2023/03/29 11:13:34;;;;;;;3.20;2.53;;;12.80;99.90;;;;;;5056355;28;20462;-71
2023/03/29 11:16:11;;;;;;;6.03;3.00;;;12.80;99.90;;;;;;5051564;28;20509;-71
2023/03/29 11:18:57;;;;;;;5.03;2.93;;;13.00;99.90;;;;;;5051185;28;21002;-71
2023/03/29 11:21:30;;;;;;;3.57;2.40;;;12.90;99.90;;;;;;5050680;28;20440;-72
2023/03/29 11:24:15;;;;;;;2.40;2.20;;;12.90;99.90;;;;;;5051935;28;20813;-71
2023/03/29 11:26:56;;;;;;;5.20;2.47;;;13.10;99.90;;;;;;5053657;28;20861;-71
2023/03/29 11:29:28;;;;;;;5.33;3.37;;;13.30;99.90;;;;;;5051423;28;20428;-72
2023/03/29 11:32:04;;;;;;;2.83;2.50;;;13.80;99.90;;;;;;5050743;28;20464;-71
2023/03/29 11:34:43;;;;;;;2.03;1.50;;;14.40;99.90;;;;;;5050316;28;20501;-71
2023/03/29 11:37:20;;;;;;;4.57;2.27;;;14.90;99.90;;;;;;5050770;28;20474;-71
2023/03/29 11:40:03;;;;;;;2.60;1.97;;;15.10;99.90;;;;;;5053002;28;20450;-71
2023/03/29 11:42:34;;;;;;;2.90;2.17;;;15.20;99.90;;;;;;5051607;28;20917;-71
2023/03/29 11:45:04;;;;;;;4.33;2.13;;;15.30;99.90;;;;;;5050594;28;20428;-71
2023/03/29 11:47:33;;;;;;;3.10;2.80;;;15.20;99.90;;;;;;5050546;28;20467;-71
2023/03/29 11:50:09;;;;;;;3.00;2.03;;;15.00;99.90;;;;;;5050260;28;20446;-71
2023/03/29 11:52:40;;;;;;;2.80;1.90;;;14.80;99.90;;;;;;5051263;28;20427;-72
2023/03/29 11:55:13;;;;;;;3.63;2.20;;;14.60;99.90;;;;;;5048799;28;20478;-72
2023/03/29 11:57:46;;;;;;;3.50;1.90;;;14.70;99.90;;;;;;5050648;28;20460;-72
2023/03/29 12:00:17;;;;;;;7.27;3.20;;;14.80;99.90;;;;;;5050697;28;20512;-72
2023/03/29 12:02:47;;;;;;;2.50;2.30;;;14.80;99.90;;;;;;5051124;28;20487;-72
2023/03/29 12:05:20;;;;;;;5.03;2.30;;;15.10;99.90;;;;;;5056829;28;20458;-72
2023/03/29 12:07:56;;;;;;;3.23;1.87;;;15.30;99.90;;;;;;5055178;28;20542;-73
2023/03/29 12:10:29;;;;;;;3.60;2.10;;;15.40;99.90;;;;;;5050224;28;20510;-73
2023/03/29 12:13:00;;;;;;;2.07;1.63;;;15.90;99.90;;;;;;5051029;28;20519;-73
2023/03/29 12:15:32;;;;;;;3.73;2.43;;;16.70;99.90;;;;;;5050473;28;20551;-73
2023/03/29 12:18:07;;;;;;;2.73;2.20;;;17.60;99.90;;;;;;5053711;28;20472;-73
2023/03/29 12:20:39;;;;;;;3.40;2.00;;;18.20;99.90;;;;;;5050457;28;20439;-71
2023/03/29 12:23:07;;;;;;;11.57;2.73;;;18.60;99.90;;;;;;5050297;28;20440;-71
2023/03/29 12:25:44;;;;;;;3.63;2.20;;;18.30;99.90;;;;;;5050416;28;20435;-72
2023/03/29 12:28:28;;;;;;;2.30;2.00;;;18.60;99.90;;;;;;5050525;28;20463;-73
2023/03/29 12:31:01;;;;;;;2.30;2.07;;;18.10;99.90;;;;;;5050439;28;20439;-72
2023/03/29 12:34:07;;;;;;;6.20;2.23;;;18.10;99.90;;;;;;5051008;28;20442;-72
2023/03/29 12:37:03;;;;;;;4.00;2.37;;;17.90;99.90;;;;;;5054481;28;20487;-71
2023/03/29 12:39:32;;;;;;;3.43;3.13;;;17.80;99.90;;;;;;5053207;28;20522;-70
2023/03/29 12:42:12;;;;;;;4.17;2.80;;;17.90;99.90;;;;;;5054176;28;20903;-71
2023/03/29 12:44:41;;;;;;;4.33;2.60;;;17.90;99.90;;;;;;5055360;28;20813;-71
2023/03/29 12:47:18;;;;;;;2.73;1.90;;;17.30;99.90;;;;;;5054242;28;20577;-71
2023/03/29 12:49:52;;;;;;;8.23;2.83;;;17.10;99.90;;;;;;5054448;28;20646;-71
2023/03/29 12:52:27;;;;;;;3.30;2.00;;;17.20;99.90;;;;;;5054363;28;20437;-72
2023/03/29 12:54:56;;;;;;;3.07;2.20;;;17.20;99.90;;;;;;5054200;28;20506;-72
2023/03/29 12:57:38;;;;;;;2.00;1.80;;;17.00;99.90;;;;;;5056158;28;20470;-72
2023/03/29 13:00:19;;;;;;;2.30;2.10;;;17.00;99.90;;;;;;5066698;28;20404;-72
2023/03/29 13:03:01;;;;;;;2.87;1.90;;;17.00;99.90;;;;;;5055858;28;20489;-72
2023/03/29 13:05:32;;;;;;;4.80;2.30;;;16.90;99.90;;;;;;5055936;28;20809;-72
2023/03/29 13:08:19;;;;;;;3.13;1.30;;;16.70;99.90;;;;;;5054237;28;20550;-72
2023/03/29 13:10:53;;;;;;;3.10;2.17;;;16.40;99.90;;;;;;5053666;28;20481;-72